createdAt,value
2017-11-20T00:01:56.051Z,2.60
2017-11-20T00:04:23.935Z,2.50
2017-11-20T00:06:52.015Z,2.60
2017-11-20T00:09:19.894Z,2.60
2017-11-20T00:11:48.547Z,2.50
2017-11-20T00:14:16.524Z,2.50
2017-11-20T00:16:44.291Z,2.60
2017-11-20T00:19:12.110Z,2.50
2017-11-20T00:21:40.017Z,2.60
2017-11-20T00:24:07.900Z,2.50
2017-11-20T00:26:36.469Z,2.60
2017-11-20T00:29:05.370Z,2.50
2017-11-20T00:31:33.284Z,2.50
2017-11-20T00:34:01.268Z,2.50
2017-11-20T00:36:29.353Z,2.50
2017-11-20T00:38:57.266Z,2.40
2017-11-20T00:41:25.932Z,2.40
2017-11-20T00:43:55.327Z,2.30
2017-11-20T00:46:23.126Z,2.30
2017-11-20T00:48:51.343Z,2.30
2017-11-20T00:51:19.216Z,2.30
2017-11-20T00:53:47.154Z,2.30
2017-11-20T00:56:14.944Z,2.30
2017-11-20T00:58:42.915Z,2.30
2017-11-20T01:01:10.815Z,2.40
2017-11-20T01:03:39.468Z,2.30
2017-11-20T01:06:07.240Z,2.30
2017-11-20T01:08:35.006Z,2.30
2017-11-20T01:11:03.026Z,2.30
2017-11-20T01:13:31.061Z,2.30
2017-11-20T01:15:58.910Z,2.30
2017-11-20T01:18:27.076Z,2.30
2017-11-20T01:20:55.186Z,2.30
2017-11-20T01:23:23.791Z,2.30
2017-11-20T01:25:52.428Z,2.30
2017-11-20T01:28:20.196Z,2.30
2017-11-20T01:30:48.264Z,2.30
2017-11-20T01:33:16.148Z,2.30
2017-11-20T01:35:44.005Z,2.30
2017-11-20T01:38:11.850Z,2.30
2017-11-20T01:40:39.726Z,2.30
2017-11-20T01:43:07.697Z,2.30
2017-11-20T01:45:35.656Z,2.30
2017-11-20T01:48:04.256Z,2.40
2017-11-20T01:50:32.308Z,2.30
2017-11-20T01:53:00.193Z,2.40
2017-11-20T01:55:28.141Z,2.30
2017-11-20T01:57:56.027Z,2.20
2017-11-20T02:00:23.945Z,2.10
2017-11-20T02:03:01.167Z,2.10
2017-11-20T02:05:28.971Z,2.00
2017-11-20T02:07:57.629Z,1.80
2017-11-20T02:10:27.047Z,1.80
2017-11-20T02:12:55.089Z,1.80
2017-11-20T02:15:23.282Z,1.80
2017-11-20T02:17:51.328Z,1.80
2017-11-20T02:20:19.400Z,1.80
2017-11-20T02:22:47.385Z,1.80
2017-11-20T02:25:15.273Z,1.90
2017-11-20T02:27:44.126Z,1.90
2017-11-20T02:30:12.068Z,1.90
2017-11-20T02:32:39.980Z,1.90
2017-11-20T02:35:07.951Z,1.80
2017-11-20T02:37:36.830Z,1.80
2017-11-20T02:40:04.892Z,1.80
2017-11-20T02:42:32.875Z,1.80
2017-11-20T02:45:00.719Z,1.80
2017-11-20T02:47:28.725Z,1.80
2017-11-20T02:49:56.995Z,1.80
2017-11-20T02:52:24.957Z,1.80
2017-11-20T02:54:53.217Z,1.90
2017-11-20T02:57:21.869Z,1.90
2017-11-20T02:59:49.796Z,1.90
2017-11-20T03:02:17.688Z,2.00
2017-11-20T03:04:45.513Z,2.00
2017-11-20T03:07:13.386Z,2.00
2017-11-20T03:09:41.433Z,2.10
2017-11-20T03:12:10.031Z,2.10
2017-11-20T03:14:37.972Z,2.10
2017-11-20T03:17:05.851Z,2.10
2017-11-20T03:19:33.669Z,2.10
2017-11-20T03:22:02.645Z,2.10
2017-11-20T03:24:30.598Z,2.10
2017-11-20T03:26:58.622Z,2.10
2017-11-20T03:29:26.640Z,2.10
2017-11-20T03:31:54.414Z,2.10
2017-11-20T03:34:22.472Z,2.10
2017-11-20T03:36:50.544Z,2.10
2017-11-20T03:39:18.510Z,2.00
2017-11-20T03:41:46.465Z,2.00
2017-11-20T03:44:14.356Z,2.00
2017-11-20T03:46:42.240Z,2.00
2017-11-20T03:49:10.799Z,1.90
2017-11-20T03:51:38.557Z,1.90
2017-11-20T03:54:06.430Z,2.00
2017-11-20T03:56:34.396Z,2.00
2017-11-20T03:59:19.998Z,2.00
2017-11-20T04:01:48.683Z,2.00
2017-11-20T04:04:17.568Z,1.90
2017-11-20T04:06:45.502Z,1.90
2017-11-20T04:09:13.570Z,1.90
2017-11-20T04:11:41.545Z,1.90
2017-11-20T04:14:09.349Z,1.90
2017-11-20T04:16:37.875Z,1.90
2017-11-20T04:19:06.574Z,1.80
2017-11-20T04:21:34.460Z,1.90
2017-11-20T04:24:02.327Z,2.00
2017-11-20T04:26:30.381Z,1.90
2017-11-20T04:28:58.223Z,1.90
2017-11-20T04:31:26.017Z,1.90
2017-11-20T04:33:53.848Z,1.90
2017-11-20T04:36:22.579Z,1.90
2017-11-20T04:38:50.833Z,1.90
2017-11-20T04:41:19.042Z,1.90
2017-11-20T04:43:47.662Z,1.90
2017-11-20T04:46:15.663Z,1.90
2017-11-20T04:48:43.447Z,1.80
2017-11-20T04:51:11.361Z,1.80
2017-11-20T04:53:39.189Z,1.80
2017-11-20T04:56:07.058Z,1.80
2017-11-20T04:58:34.901Z,1.80
2017-11-20T05:01:02.775Z,1.80
2017-11-20T05:03:30.559Z,1.80
2017-11-20T05:05:59.091Z,1.80
2017-11-20T05:08:26.890Z,1.80
2017-11-20T05:10:54.964Z,1.90
2017-11-20T05:13:22.837Z,1.90
2017-11-20T05:15:50.833Z,1.90
2017-11-20T05:18:19.570Z,1.90
2017-11-20T05:20:47.448Z,1.90
2017-11-20T05:23:15.372Z,1.90
2017-11-20T05:25:43.285Z,1.90
2017-11-20T05:28:11.152Z,1.90
2017-11-20T05:30:39.119Z,1.90
2017-11-20T05:33:06.987Z,1.90
2017-11-20T05:35:34.935Z,1.90
2017-11-20T05:38:02.925Z,1.90
2017-11-20T05:40:30.975Z,1.90
2017-11-20T05:42:58.752Z,1.80
2017-11-20T05:45:26.521Z,1.80
2017-11-20T05:47:54.291Z,1.80
2017-11-20T05:50:23.728Z,1.80
2017-11-20T05:52:52.264Z,1.90
2017-11-20T05:55:20.132Z,1.80
2017-11-20T05:57:48.205Z,1.90
2017-11-20T06:00:16.028Z,1.90
2017-11-20T06:02:44.150Z,1.90
2017-11-20T06:05:12.009Z,1.90
2017-11-20T06:07:40.088Z,2.00
2017-11-20T06:10:08.133Z,1.90
2017-11-20T06:12:36.103Z,1.90
2017-11-20T06:15:04.175Z,1.90
2017-11-20T06:17:31.964Z,1.80
2017-11-20T06:20:01.442Z,1.90
2017-11-20T06:22:29.718Z,1.90
2017-11-20T06:24:57.688Z,1.90
2017-11-20T06:27:25.609Z,1.90
2017-11-20T06:29:53.466Z,1.90
2017-11-20T06:32:22.122Z,1.90
2017-11-20T06:34:50.201Z,1.80
2017-11-20T06:37:19.576Z,1.90
2017-11-20T06:39:48.602Z,1.90
2017-11-20T06:42:16.462Z,2.00
2017-11-20T06:44:44.451Z,2.00
2017-11-20T06:47:13.192Z,2.00
2017-11-20T06:49:41.266Z,2.00
2017-11-20T06:52:09.236Z,2.00
2017-11-20T06:54:37.334Z,1.90
2017-11-20T06:57:05.273Z,2.00
2017-11-20T06:59:33.452Z,2.00
2017-11-20T07:02:02.300Z,1.90
2017-11-20T07:04:30.414Z,2.00
2017-11-20T07:06:58.320Z,2.10
2017-11-20T07:09:27.066Z,2.10
2017-11-20T07:11:55.291Z,2.10
2017-11-20T07:14:24.258Z,2.10
2017-11-20T07:16:52.433Z,2.10
2017-11-20T07:19:20.602Z,2.20
2017-11-20T07:21:49.364Z,2.20
2017-11-20T07:24:17.438Z,2.20
2017-11-20T07:26:59.543Z,2.30
2017-11-20T07:29:39.380Z,2.40
2017-11-20T07:32:07.452Z,2.40
2017-11-20T07:34:47.317Z,2.50
2017-11-20T07:37:27.043Z,2.50
2017-11-20T07:40:07.098Z,2.60
2017-11-20T07:42:35.314Z,2.60
2017-11-20T07:45:03.546Z,2.70
2017-11-20T07:47:31.636Z,2.70
2017-11-20T07:49:59.587Z,2.70
2017-11-20T07:52:27.590Z,2.70
2017-11-20T07:54:56.449Z,2.80
2017-11-20T07:57:24.640Z,2.80
2017-11-20T07:59:52.790Z,2.90
2017-11-20T08:02:20.759Z,3.00
2017-11-20T08:04:48.741Z,3.10
2017-11-20T08:07:16.702Z,3.20
2017-11-20T08:09:44.667Z,3.20
2017-11-20T08:12:12.942Z,3.20
2017-11-20T08:14:40.909Z,3.20
2017-11-20T08:17:08.909Z,3.20
2017-11-20T08:19:36.989Z,3.30
2017-11-20T08:22:05.144Z,3.30
2017-11-20T08:24:33.340Z,3.40
2017-11-20T08:27:02.085Z,3.30
2017-11-20T08:29:29.896Z,3.30
2017-11-20T08:31:58.742Z,3.50
2017-11-20T08:34:26.842Z,3.50
2017-11-20T08:36:54.884Z,3.50
2017-11-20T08:39:23.770Z,3.60
2017-11-20T08:41:52.089Z,3.60
2017-11-20T08:44:21.206Z,3.50
2017-11-20T08:46:49.451Z,3.50
2017-11-20T08:49:17.534Z,3.50
2017-11-20T08:51:46.481Z,3.60
2017-11-20T08:54:14.880Z,3.60
2017-11-20T08:56:43.591Z,3.70
2017-11-20T08:59:12.437Z,3.70
2017-11-20T09:01:40.329Z,3.70
2017-11-20T09:04:08.456Z,3.70
2017-11-20T09:06:36.754Z,3.90
2017-11-20T09:09:05.047Z,4.00
2017-11-20T09:11:33.167Z,4.10
2017-11-20T09:14:02.149Z,4.30
2017-11-20T09:16:30.062Z,4.30
2017-11-20T09:18:57.923Z,4.30
2017-11-20T09:21:25.880Z,4.30
2017-11-20T09:23:53.882Z,4.20
2017-11-20T09:26:22.141Z,4.30
2017-11-20T09:28:50.212Z,4.40
2017-11-20T09:31:18.206Z,4.10
2017-11-20T09:33:46.169Z,4.00
2017-11-20T09:36:14.055Z,3.80
2017-11-20T09:38:42.670Z,3.90
2017-11-20T09:41:10.669Z,3.90
2017-11-20T09:43:38.762Z,4.00
2017-11-20T09:46:07.536Z,3.90
2017-11-20T09:48:36.360Z,3.90
2017-11-20T09:51:05.426Z,4.10
2017-11-20T09:53:33.581Z,4.10
2017-11-20T09:56:01.663Z,4.30
2017-11-20T09:58:30.341Z,4.40
2017-11-20T10:00:58.435Z,4.50
2017-11-20T10:03:26.481Z,4.40
2017-11-20T10:05:54.660Z,4.40
2017-11-20T10:08:22.833Z,4.30
2017-11-20T10:10:50.820Z,4.30
2017-11-20T10:13:19.111Z,4.30
2017-11-20T10:15:48.220Z,4.40
2017-11-20T10:18:17.091Z,4.70
2017-11-20T10:20:45.169Z,4.60
2017-11-20T10:23:13.523Z,4.80
2017-11-20T10:25:41.683Z,4.80
2017-11-20T10:28:10.063Z,5.00
2017-11-20T10:30:37.959Z,5.30
2017-11-20T10:33:06.137Z,5.30
2017-11-20T10:35:35.632Z,5.20
2017-11-20T10:38:03.708Z,5.20
2017-11-20T10:40:31.902Z,5.00
2017-11-20T10:43:00.957Z,5.00
2017-11-20T10:45:29.045Z,5.00
2017-11-20T10:47:57.005Z,5.30
2017-11-20T10:50:25.177Z,5.40
2017-11-20T10:52:53.165Z,5.20
2017-11-20T10:55:21.112Z,5.20
2017-11-20T10:57:49.104Z,5.20
2017-11-20T11:00:17.156Z,5.30
2017-11-20T11:02:45.102Z,5.40
2017-11-20T11:05:13.204Z,5.40
2017-11-20T11:07:41.372Z,5.40
2017-11-20T11:10:09.422Z,5.60
2017-11-20T11:12:38.030Z,5.90
2017-11-20T11:15:05.876Z,5.60
2017-11-20T11:17:33.842Z,5.60
2017-11-20T11:20:01.809Z,5.80
2017-11-20T11:22:30.010Z,6.00
2017-11-20T11:24:58.051Z,5.70
2017-11-20T11:27:26.126Z,5.70
2017-11-20T11:29:54.026Z,5.70
2017-11-20T11:32:22.285Z,5.70
2017-11-20T11:34:50.340Z,5.70
2017-11-20T11:37:18.336Z,5.60
2017-11-20T11:39:46.584Z,5.50
2017-11-20T11:42:14.610Z,5.80
2017-11-20T11:44:43.300Z,6.20
2017-11-20T11:47:11.223Z,6.10
2017-11-20T11:49:39.290Z,6.10
2017-11-20T11:52:07.161Z,5.90
2017-11-20T11:54:35.028Z,5.90
2017-11-20T11:57:03.122Z,6.00
2017-11-20T11:59:31.770Z,6.30
2017-11-20T12:01:59.759Z,6.30
2017-11-20T12:04:27.853Z,6.40
2017-11-20T12:06:57.088Z,6.10
2017-11-20T12:09:25.299Z,6.10
2017-11-20T12:11:53.281Z,5.90
2017-11-20T12:14:22.136Z,5.90
2017-11-20T12:16:50.022Z,5.90
2017-11-20T12:19:18.084Z,6.10
2017-11-20T12:21:46.073Z,6.10
2017-11-20T12:24:14.539Z,6.10
2017-11-20T12:26:43.434Z,6.00
2017-11-20T12:29:11.896Z,6.00
2017-11-20T12:31:39.778Z,5.80
2017-11-20T12:34:07.763Z,5.70
2017-11-20T12:36:35.631Z,5.60
2017-11-20T12:39:03.773Z,5.70
2017-11-20T12:41:31.743Z,5.70
2017-11-20T12:43:59.645Z,5.70
2017-11-20T12:46:28.258Z,5.70
2017-11-20T12:48:56.177Z,5.70
2017-11-20T12:51:24.028Z,5.80
2017-11-20T12:53:52.012Z,5.80
2017-11-20T12:56:20.096Z,5.90
2017-11-20T12:58:49.418Z,5.80
2017-11-20T13:01:18.080Z,5.70
2017-11-20T13:03:47.160Z,5.60
2017-11-20T13:06:15.587Z,5.60
2017-11-20T13:08:43.532Z,5.70
2017-11-20T13:11:11.410Z,5.70
2017-11-20T13:13:40.149Z,6.00
2017-11-20T13:16:08.221Z,6.00
2017-11-20T13:18:37.524Z,6.10
2017-11-20T13:21:05.517Z,6.10
2017-11-20T13:23:33.570Z,6.10
2017-11-20T13:26:01.732Z,5.90
2017-11-20T13:28:30.359Z,5.90
2017-11-20T13:30:59.222Z,6.00
2017-11-20T13:33:27.141Z,5.90
2017-11-20T13:35:55.288Z,6.00
2017-11-20T13:38:24.486Z,5.70
2017-11-20T13:40:53.381Z,5.70
2017-11-20T13:43:22.141Z,5.60
2017-11-20T13:45:49.969Z,5.60
2017-11-20T13:48:17.952Z,5.60
2017-11-20T13:50:46.623Z,5.60
2017-11-20T13:53:14.546Z,5.70
2017-11-20T13:55:42.473Z,5.60
2017-11-20T13:58:10.556Z,5.60
2017-11-20T14:00:38.519Z,5.60
2017-11-20T14:03:06.398Z,5.70
2017-11-20T14:05:34.488Z,5.80
2017-11-20T14:08:02.515Z,5.80
2017-11-20T14:10:30.396Z,5.80
2017-11-20T14:12:58.571Z,5.70
2017-11-20T14:15:26.772Z,5.70
2017-11-20T14:17:54.641Z,5.60
2017-11-20T14:20:22.450Z,5.50
2017-11-20T14:22:50.496Z,5.50
2017-11-20T14:25:19.462Z,5.50
2017-11-20T14:27:48.239Z,5.50
2017-11-20T14:30:16.135Z,5.40
2017-11-20T14:32:44.879Z,5.30
2017-11-20T14:35:12.894Z,5.30
2017-11-20T14:37:42.877Z,5.30
2017-11-20T14:40:10.934Z,5.30
2017-11-20T14:42:39.010Z,5.20
2017-11-20T14:45:07.001Z,5.20
2017-11-20T14:47:35.687Z,5.10
2017-11-20T14:50:04.614Z,5.10
2017-11-20T14:52:32.545Z,5.10
2017-11-20T14:55:00.596Z,5.10
2017-11-20T14:57:29.589Z,5.00
2017-11-20T14:59:57.645Z,5.00
2017-11-20T15:02:25.575Z,4.90
2017-11-20T15:04:54.229Z,4.90
2017-11-20T15:07:22.178Z,4.90
2017-11-20T15:09:50.251Z,4.90
2017-11-20T15:12:18.233Z,4.90
2017-11-20T15:14:46.292Z,4.80
2017-11-20T15:17:14.359Z,4.70
2017-11-20T15:19:42.351Z,4.70
2017-11-20T15:22:10.552Z,4.80
2017-11-20T15:24:39.390Z,4.80
2017-11-20T15:27:07.434Z,4.80
2017-11-20T15:29:35.846Z,4.80
2017-11-20T15:32:03.814Z,4.70
2017-11-20T15:34:32.209Z,4.60
2017-11-20T15:37:00.170Z,4.60
2017-11-20T15:39:28.096Z,4.60
2017-11-20T15:41:56.196Z,4.60
2017-11-20T15:44:24.081Z,4.60
2017-11-20T15:46:52.949Z,4.60
2017-11-20T15:49:20.928Z,4.70
2017-11-20T15:51:48.736Z,4.60
2017-11-20T15:54:17.661Z,4.70
2017-11-20T15:56:45.649Z,4.70
2017-11-20T15:59:13.602Z,4.60
2017-11-20T16:01:41.497Z,4.60
2017-11-20T16:04:09.658Z,4.60
2017-11-20T16:06:37.554Z,4.60
2017-11-20T16:09:06.216Z,4.60
2017-11-20T16:11:34.175Z,4.50
2017-11-20T16:14:02.145Z,4.50
2017-11-20T16:16:30.142Z,4.50
2017-11-20T16:18:59.832Z,4.40
2017-11-20T16:21:28.128Z,4.40
2017-11-20T16:23:56.102Z,4.40
2017-11-20T16:26:24.166Z,4.70
2017-11-20T16:28:52.954Z,5.00
2017-11-20T16:31:20.839Z,5.00
2017-11-20T16:33:49.494Z,5.20
2017-11-20T16:36:17.446Z,5.20
2017-11-20T16:38:45.308Z,5.30
2017-11-20T16:41:13.520Z,5.30
2017-11-20T16:43:41.477Z,5.40
2017-11-20T16:46:09.526Z,5.30
2017-11-20T16:48:37.606Z,5.40
2017-11-20T16:51:05.605Z,5.40
2017-11-20T16:53:34.259Z,5.20
2017-11-20T16:56:02.360Z,5.20
2017-11-20T16:58:42.885Z,5.10
2017-11-20T17:01:12.457Z,5.10
2017-11-20T17:03:40.462Z,5.00
2017-11-20T17:06:08.688Z,4.90
2017-11-20T17:08:37.540Z,4.80
2017-11-20T17:11:05.597Z,4.70
2017-11-20T17:13:33.662Z,4.70
2017-11-20T17:16:01.590Z,4.70
2017-11-20T17:18:30.221Z,4.70
2017-11-20T17:20:58.194Z,4.70
2017-11-20T17:23:26.045Z,4.70
2017-11-20T17:25:55.258Z,4.70
2017-11-20T17:28:23.258Z,4.70
2017-11-20T17:30:51.317Z,4.80
2017-11-20T17:33:19.585Z,4.70
2017-11-20T17:35:48.598Z,4.70
2017-11-20T17:38:16.436Z,4.70
2017-11-20T17:40:44.420Z,4.70
2017-11-20T17:43:12.377Z,4.70
2017-11-20T17:45:40.257Z,4.70
2017-11-20T17:48:08.102Z,4.70
2017-11-20T17:50:36.019Z,4.70
2017-11-20T17:53:05.132Z,4.70
2017-11-20T17:55:33.056Z,4.70
2017-11-20T17:58:01.053Z,4.70
2017-11-20T18:00:29.095Z,4.70
2017-11-20T18:02:57.021Z,4.80
2017-11-20T18:05:25.136Z,4.80
2017-11-20T18:07:59.325Z,4.80
2017-11-20T18:10:28.981Z,4.70
2017-11-20T18:12:57.820Z,4.70
2017-11-20T18:15:28.556Z,4.70
2017-11-20T18:17:57.343Z,4.70
2017-11-20T18:20:25.551Z,4.70
2017-11-20T18:22:55.660Z,4.80
2017-11-20T18:25:24.960Z,4.80
2017-11-20T18:27:53.039Z,4.80
2017-11-20T18:30:21.013Z,4.80
2017-11-20T18:32:49.150Z,4.80
2017-11-20T18:35:17.119Z,4.80
2017-11-20T18:37:45.208Z,4.80
2017-11-20T18:40:13.082Z,4.80
2017-11-20T18:42:40.939Z,4.80
2017-11-20T18:45:08.912Z,4.90
2017-11-20T18:47:36.773Z,5.00
2017-11-20T18:50:05.288Z,5.00
2017-11-20T18:52:33.517Z,5.00
2017-11-20T18:55:01.754Z,4.90
2017-11-20T18:57:29.780Z,4.90
2017-11-20T19:00:09.631Z,4.90
2017-11-20T19:02:49.283Z,5.00
2017-11-20T19:05:29.917Z,4.90
2017-11-20T19:08:09.668Z,4.80
2017-11-20T19:10:37.571Z,4.80
2017-11-20T19:13:06.358Z,4.90
2017-11-20T19:15:35.321Z,4.90
2017-11-20T19:18:03.374Z,4.90
2017-11-20T19:20:31.680Z,4.90
2017-11-20T19:22:59.724Z,4.80
2017-11-20T19:25:27.615Z,4.80
2017-11-20T19:27:55.825Z,4.90
2017-11-20T19:30:23.862Z,4.90
2017-11-20T19:32:52.009Z,4.90
2017-11-20T19:35:20.216Z,4.90
2017-11-20T19:37:49.710Z,5.00
2017-11-20T19:40:18.068Z,5.00
2017-11-20T19:42:46.752Z,5.00
2017-11-20T19:45:14.752Z,4.90
2017-11-20T19:47:43.566Z,4.90
2017-11-20T19:50:11.552Z,4.90
2017-11-20T19:52:39.880Z,5.00
2017-11-20T19:55:07.929Z,5.00
2017-11-20T19:57:35.999Z,5.00
2017-11-20T20:00:04.188Z,5.00
2017-11-20T20:02:32.854Z,5.10
2017-11-20T20:05:01.605Z,5.20
2017-11-20T20:07:29.551Z,5.30
2017-11-20T20:09:58.331Z,5.20
2017-11-20T20:12:26.471Z,5.20
2017-11-20T20:15:06.649Z,5.20
2017-11-20T20:17:35.556Z,5.10
2017-11-20T20:20:04.613Z,5.10
2017-11-20T20:22:32.513Z,5.10
2017-11-20T20:25:01.196Z,5.10
2017-11-20T20:27:30.056Z,5.10
2017-11-20T20:29:58.125Z,5.10
2017-11-20T20:32:27.168Z,5.10
2017-11-20T20:34:56.123Z,5.20
2017-11-20T20:37:23.985Z,5.20
2017-11-20T20:39:51.861Z,5.20
2017-11-20T20:42:19.729Z,5.20
2017-11-20T20:44:48.189Z,5.30
2017-11-20T20:47:15.941Z,5.30
2017-11-20T20:49:43.941Z,5.30
2017-11-20T20:52:12.010Z,5.40
2017-11-20T20:54:40.168Z,5.40
2017-11-20T20:57:08.143Z,5.30
2017-11-20T20:59:36.114Z,5.30
2017-11-20T21:02:04.384Z,5.30
2017-11-20T21:04:32.350Z,5.30
2017-11-20T21:07:00.238Z,5.20
2017-11-20T21:09:36.041Z,5.20
2017-11-20T21:12:09.978Z,5.20
2017-11-20T21:14:38.371Z,5.10
2017-11-20T21:17:06.360Z,5.20
2017-11-20T21:19:35.039Z,5.20
2017-11-20T21:22:03.190Z,5.20
2017-11-20T21:24:31.176Z,5.20
2017-11-20T21:26:59.879Z,5.30
2017-11-20T21:29:28.983Z,5.30
2017-11-20T21:31:57.717Z,5.30
2017-11-20T21:34:25.832Z,5.30
2017-11-20T21:36:54.784Z,5.10
2017-11-20T21:39:22.876Z,5.10
2017-11-20T21:41:51.770Z,5.10
2017-11-20T21:44:19.769Z,5.00
2017-11-20T21:46:48.704Z,5.10
2017-11-20T21:49:16.686Z,5.10
2017-11-20T21:51:45.788Z,5.00
2017-11-20T21:54:13.956Z,4.90
2017-11-20T21:56:42.017Z,4.80
2017-11-20T21:59:09.909Z,4.80
2017-11-20T22:01:38.062Z,5.00
2017-11-20T22:04:06.023Z,4.90
2017-11-20T22:06:34.607Z,5.00
2017-11-20T22:09:03.601Z,5.00
2017-11-20T22:11:32.288Z,5.00
2017-11-20T22:14:00.117Z,5.00
2017-11-20T22:16:27.954Z,5.00
2017-11-20T22:18:57.247Z,4.90
2017-11-20T22:21:25.904Z,4.90
2017-11-20T22:23:53.749Z,4.90
2017-11-20T22:26:21.901Z,4.90
2017-11-20T22:28:49.911Z,4.70
2017-11-20T22:31:17.982Z,4.70
2017-11-20T22:33:46.085Z,4.70
2017-11-20T22:36:13.948Z,4.80
2017-11-20T22:38:43.024Z,4.90
2017-11-20T22:41:10.880Z,5.00
2017-11-20T22:43:38.773Z,4.90
2017-11-20T22:46:07.247Z,4.90
2017-11-20T22:48:35.069Z,4.90
2017-11-20T22:51:03.104Z,4.90
2017-11-20T22:53:31.774Z,4.80
2017-11-20T22:55:59.670Z,4.80
2017-11-20T22:58:27.629Z,4.90
2017-11-20T23:00:56.400Z,4.90
2017-11-20T23:03:24.329Z,4.90
2017-11-20T23:05:52.416Z,4.90
2017-11-20T23:08:20.297Z,4.90
2017-11-20T23:10:48.132Z,5.00
2017-11-20T23:13:16.119Z,4.90
2017-11-20T23:15:44.104Z,4.90
2017-11-20T23:18:12.138Z,4.90
2017-11-20T23:20:41.066Z,4.90
2017-11-20T23:23:10.550Z,4.90
2017-11-20T23:25:38.549Z,4.90
2017-11-20T23:28:07.432Z,5.00
2017-11-20T23:30:35.304Z,5.00
2017-11-20T23:33:04.764Z,5.00
2017-11-20T23:35:32.745Z,5.00
2017-11-20T23:38:00.589Z,5.00
2017-11-20T23:40:28.393Z,5.00
2017-11-20T23:42:56.184Z,4.90
2017-11-20T23:45:24.883Z,4.90
2017-11-20T23:47:53.000Z,4.90
2017-11-20T23:50:20.893Z,4.90
2017-11-20T23:52:50.071Z,4.90
2017-11-20T23:55:18.040Z,4.90
2017-11-20T23:57:45.838Z,4.90
